sensor_id;sensor_type;location;lat;lon;timestamp;P1;durP1;ratioP1;P2;durP2;ratioP2
10013;SDS011;45684;48.358;10.746;2022-09-09T00:02:18;2.70;;;1.53;;
10013;SDS011;45684;48.358;10.746;2022-09-09T00:04:50;3.03;;;1.80;;
10013;SDS011;45684;48.358;10.746;2022-09-09T00:07:28;1.83;;;1.67;;
10013;SDS011;45684;48.358;10.746;2022-09-09T00:10:09;1.60;;;1.50;;
10013;SDS011;45684;48.358;10.746;2022-09-09T00:12:47;2.80;;;1.80;;
10013;SDS011;45684;48.358;10.746;2022-09-09T00:15:23;3.43;;;1.67;;
10013;SDS011;45684;48.358;10.746;2022-09-09T00:17:56;1.77;;;1.50;;
10013;SDS011;45684;48.358;10.746;2022-09-09T00:20:30;2.43;;;2.23;;
10013;SDS011;45684;48.358;10.746;2022-09-09T00:23:05;1.60;;;1.10;;
10013;SDS011;45684;48.358;10.746;2022-09-09T00:25:44;2.13;;;1.50;;
10013;SDS011;45684;48.358;10.746;2022-09-09T00:28:20;2.63;;;1.50;;
10013;SDS011;45684;48.358;10.746;2022-09-09T00:30:50;2.93;;;1.63;;
10013;SDS011;45684;48.358;10.746;2022-09-09T00:33:19;3.73;;;1.70;;
10013;SDS011;45684;48.358;10.746;2022-09-09T00:35:49;1.70;;;1.60;;
10013;SDS011;45684;48.358;10.746;2022-09-09T00:38:19;2.33;;;1.70;;
10013;SDS011;45684;48.358;10.746;2022-09-09T00:40:55;1.70;;;1.60;;
10013;SDS011;45684;48.358;10.746;2022-09-09T00:43:28;4.13;;;1.70;;
10013;SDS011;45684;48.358;10.746;2022-09-09T00:48:59;3.33;;;1.80;;
10013;SDS011;45684;48.358;10.746;2022-09-09T00:51:38;1.80;;;1.70;;
10013;SDS011;45684;48.358;10.746;2022-09-09T00:54:25;3.03;;;1.80;;
10013;SDS011;45684;48.358;10.746;2022-09-09T00:57:05;2.20;;;2.00;;
10013;SDS011;45684;48.358;10.746;2022-09-09T00:59:45;3.13;;;1.90;;
10013;SDS011;45684;48.358;10.746;2022-09-09T01:02:18;3.23;;;1.93;;
10013;SDS011;45684;48.358;10.746;2022-09-09T01:04:55;1.90;;;1.80;;
10013;SDS011;45684;48.358;10.746;2022-09-09T01:07:31;2.13;;;1.90;;
10013;SDS011;45684;48.358;10.746;2022-09-09T01:10:00;3.00;;;1.80;;
10013;SDS011;45684;48.358;10.746;2022-09-09T01:12:38;2.00;;;1.90;;
10013;SDS011;45684;48.358;10.746;2022-09-09T01:15:15;3.23;;;1.77;;
10013;SDS011;45684;48.358;10.746;2022-09-09T01:17:51;2.20;;;1.90;;
10013;SDS011;45684;48.358;10.746;2022-09-09T01:20:26;3.50;;;1.67;;
10013;SDS011;45684;48.358;10.746;2022-09-09T01:23:03;2.10;;;1.90;;
10013;SDS011;45684;48.358;10.746;2022-09-09T01:26:07;1.97;;;1.87;;
10013;SDS011;45684;48.358;10.746;2022-09-09T01:28:46;2.73;;;2.10;;
10013;SDS011;45684;48.358;10.746;2022-09-09T01:31:17;1.90;;;1.80;;
10013;SDS011;45684;48.358;10.746;2022-09-09T01:33:48;2.30;;;1.80;;
10013;SDS011;45684;48.358;10.746;2022-09-09T01:36:19;1.77;;;1.67;;
10013;SDS011;45684;48.358;10.746;2022-09-09T01:38:51;3.67;;;2.37;;
10013;SDS011;45684;48.358;10.746;2022-09-09T01:41:21;1.90;;;1.80;;
10013;SDS011;45684;48.358;10.746;2022-09-09T01:44:01;2.10;;;1.90;;
10013;SDS011;45684;48.358;10.746;2022-09-09T01:46:32;3.33;;;1.70;;
10013;SDS011;45684;48.358;10.746;2022-09-09T01:49:00;2.70;;;2.13;;
10013;SDS011;45684;48.358;10.746;2022-09-09T01:51:31;1.93;;;1.70;;
10013;SDS011;45684;48.358;10.746;2022-09-09T01:54:02;4.70;;;2.27;;
10013;SDS011;45684;48.358;10.746;2022-09-09T01:56:35;2.60;;;1.87;;
10013;SDS011;45684;48.358;10.746;2022-09-09T01:59:19;3.53;;;1.80;;
10013;SDS011;45684;48.358;10.746;2022-09-09T02:02:09;2.07;;;1.67;;
10013;SDS011;45684;48.358;10.746;2022-09-09T02:04:48;2.17;;;1.77;;
10013;SDS011;45684;48.358;10.746;2022-09-09T02:07:25;3.07;;;2.07;;
10013;SDS011;45684;48.358;10.746;2022-09-09T02:10:05;3.90;;;1.70;;
10013;SDS011;45684;48.358;10.746;2022-09-09T02:12:47;3.80;;;1.77;;
10013;SDS011;45684;48.358;10.746;2022-09-09T02:15:22;3.00;;;1.80;;
10013;SDS011;45684;48.358;10.746;2022-09-09T02:17:53;5.07;;;2.17;;
10013;SDS011;45684;48.358;10.746;2022-09-09T02:20:25;3.80;;;1.90;;
10013;SDS011;45684;48.358;10.746;2022-09-09T02:23:00;2.20;;;1.70;;
10013;SDS011;45684;48.358;10.746;2022-09-09T02:25:29;2.47;;;1.90;;
10013;SDS011;45684;48.358;10.746;2022-09-09T02:28:06;1.70;;;1.53;;
10013;SDS011;45684;48.358;10.746;2022-09-09T02:30:37;1.87;;;1.70;;
10013;SDS011;45684;48.358;10.746;2022-09-09T02:33:07;2.00;;;1.90;;
10013;SDS011;45684;48.358;10.746;2022-09-09T02:35:43;1.80;;;1.70;;
10013;SDS011;45684;48.358;10.746;2022-09-09T02:38:15;1.87;;;1.60;;
10013;SDS011;45684;48.358;10.746;2022-09-09T02:40:55;1.83;;;1.63;;
10013;SDS011;45684;48.358;10.746;2022-09-09T02:43:24;1.70;;;1.60;;
10013;SDS011;45684;48.358;10.746;2022-09-09T02:45:53;2.50;;;1.70;;
10013;SDS011;45684;48.358;10.746;2022-09-09T02:48:28;2.00;;;1.90;;
10013;SDS011;45684;48.358;10.746;2022-09-09T02:51:03;3.60;;;1.93;;
10013;SDS011;45684;48.358;10.746;2022-09-09T02:53:38;2.57;;;1.90;;
10013;SDS011;45684;48.358;10.746;2022-09-09T02:56:12;4.00;;;2.00;;
10013;SDS011;45684;48.358;10.746;2022-09-09T02:58:46;3.77;;;2.00;;
10013;SDS011;45684;48.358;10.746;2022-09-09T03:01:15;2.87;;;1.70;;
10013;SDS011;45684;48.358;10.746;2022-09-09T03:03:43;2.03;;;1.90;;
10013;SDS011;45684;48.358;10.746;2022-09-09T03:06:14;2.83;;;2.00;;
10013;SDS011;45684;48.358;10.746;2022-09-09T03:08:46;2.23;;;2.00;;
10013;SDS011;45684;48.358;10.746;2022-09-09T03:11:21;3.17;;;1.80;;
10013;SDS011;45684;48.358;10.746;2022-09-09T03:13:50;2.93;;;1.50;;
10013;SDS011;45684;48.358;10.746;2022-09-09T03:16:19;2.33;;;1.63;;
10013;SDS011;45684;48.358;10.746;2022-09-09T03:18:50;1.83;;;1.50;;
10013;SDS011;45684;48.358;10.746;2022-09-09T03:21:19;2.50;;;1.73;;
10013;SDS011;45684;48.358;10.746;2022-09-09T03:23:47;3.83;;;1.57;;
10013;SDS011;45684;48.358;10.746;2022-09-09T03:26:15;3.87;;;2.00;;
10013;SDS011;45684;48.358;10.746;2022-09-09T03:28:45;2.23;;;1.70;;
10013;SDS011;45684;48.358;10.746;2022-09-09T03:31:18;2.30;;;2.10;;
10013;SDS011;45684;48.358;10.746;2022-09-09T03:33:46;5.60;;;1.90;;
10013;SDS011;45684;48.358;10.746;2022-09-09T03:36:15;3.93;;;1.93;;
10013;SDS011;45684;48.358;10.746;2022-09-09T03:38:44;2.40;;;1.83;;
10013;SDS011;45684;48.358;10.746;2022-09-09T03:41:12;1.70;;;1.60;;
10013;SDS011;45684;48.358;10.746;2022-09-09T03:43:39;1.83;;;1.73;;
10013;SDS011;45684;48.358;10.746;2022-09-09T03:46:08;1.70;;;1.60;;
10013;SDS011;45684;48.358;10.746;2022-09-09T03:48:37;3.87;;;1.73;;
10013;SDS011;45684;48.358;10.746;2022-09-09T03:51:05;1.80;;;1.70;;
10013;SDS011;45684;48.358;10.746;2022-09-09T03:53:33;2.13;;;1.60;;
10013;SDS011;45684;48.358;10.746;2022-09-09T03:56:02;1.67;;;1.50;;
10013;SDS011;45684;48.358;10.746;2022-09-09T03:58:30;3.93;;;2.00;;
10013;SDS011;45684;48.358;10.746;2022-09-09T04:01:06;1.93;;;1.70;;
10013;SDS011;45684;48.358;10.746;2022-09-09T04:03:38;1.77;;;1.67;;
10013;SDS011;45684;48.358;10.746;2022-09-09T04:06:07;1.97;;;1.50;;
10013;SDS011;45684;48.358;10.746;2022-09-09T04:08:38;1.90;;;1.70;;
10013;SDS011;45684;48.358;10.746;2022-09-09T04:11:06;3.13;;;1.53;;
10013;SDS011;45684;48.358;10.746;2022-09-09T04:13:37;1.73;;;1.60;;
10013;SDS011;45684;48.358;10.746;2022-09-09T04:16:09;3.67;;;1.80;;
10013;SDS011;45684;48.358;10.746;2022-09-09T04:18:39;2.60;;;1.80;;
10013;SDS011;45684;48.358;10.746;2022-09-09T04:21:07;2.93;;;1.70;;
10013;SDS011;45684;48.358;10.746;2022-09-09T04:23:36;4.97;;;1.93;;
10013;SDS011;45684;48.358;10.746;2022-09-09T04:26:04;2.67;;;1.80;;
10013;SDS011;45684;48.358;10.746;2022-09-09T04:28:34;2.70;;;1.90;;
10013;SDS011;45684;48.358;10.746;2022-09-09T04:31:14;2.30;;;1.90;;
10013;SDS011;45684;48.358;10.746;2022-09-09T04:33:46;2.10;;;1.60;;
10013;SDS011;45684;48.358;10.746;2022-09-09T04:36:15;3.17;;;1.60;;
10013;SDS011;45684;48.358;10.746;2022-09-09T04:38:44;2.00;;;1.90;;
10013;SDS011;45684;48.358;10.746;2022-09-09T04:41:13;2.70;;;1.80;;
10013;SDS011;45684;48.358;10.746;2022-09-09T04:43:43;1.80;;;1.60;;
10013;SDS011;45684;48.358;10.746;2022-09-09T04:46:12;1.93;;;1.70;;
10013;SDS011;45684;48.358;10.746;2022-09-09T04:48:43;2.43;;;1.67;;
10013;SDS011;45684;48.358;10.746;2022-09-09T04:51:13;2.60;;;1.87;;
10013;SDS011;45684;48.358;10.746;2022-09-09T04:53:43;2.23;;;1.70;;
10013;SDS011;45684;48.358;10.746;2022-09-09T04:56:12;2.37;;;2.07;;
10013;SDS011;45684;48.358;10.746;2022-09-09T04:58:47;2.53;;;1.90;;
10013;SDS011;45684;48.358;10.746;2022-09-09T05:01:16;2.83;;;1.80;;
10013;SDS011;45684;48.358;10.746;2022-09-09T05:03:47;3.87;;;1.83;;
10013;SDS011;45684;48.358;10.746;2022-09-09T05:06:21;2.20;;;2.00;;
10013;SDS011;45684;48.358;10.746;2022-09-09T05:08:54;3.97;;;2.07;;
10013;SDS011;45684;48.358;10.746;2022-09-09T05:11:25;2.97;;;2.07;;
10013;SDS011;45684;48.358;10.746;2022-09-09T05:14:01;2.73;;;2.23;;
10013;SDS011;45684;48.358;10.746;2022-09-09T05:16:30;2.50;;;1.93;;
10013;SDS011;45684;48.358;10.746;2022-09-09T05:18:58;3.27;;;2.10;;
10013;SDS011;45684;48.358;10.746;2022-09-09T05:21:36;2.20;;;2.00;;
10013;SDS011;45684;48.358;10.746;2022-09-09T05:24:05;3.47;;;2.13;;
10013;SDS011;45684;48.358;10.746;2022-09-09T05:26:33;2.30;;;1.90;;
10013;SDS011;45684;48.358;10.746;2022-09-09T05:29:02;5.33;;;2.00;;
10013;SDS011;45684;48.358;10.746;2022-09-09T05:31:30;2.47;;;2.20;;
10013;SDS011;45684;48.358;10.746;2022-09-09T05:34:02;2.27;;;2.10;;
10013;SDS011;45684;48.358;10.746;2022-09-09T05:36:30;3.77;;;2.50;;
10013;SDS011;45684;48.358;10.746;2022-09-09T05:39:00;3.93;;;2.03;;
10013;SDS011;45684;48.358;10.746;2022-09-09T05:41:30;3.23;;;2.10;;
10013;SDS011;45684;48.358;10.746;2022-09-09T05:44:00;2.50;;;2.30;;
10013;SDS011;45684;48.358;10.746;2022-09-09T05:46:34;2.07;;;1.93;;
10013;SDS011;45684;48.358;10.746;2022-09-09T05:49:02;2.57;;;2.10;;
10013;SDS011;45684;48.358;10.746;2022-09-09T05:51:34;2.33;;;2.03;;
10013;SDS011;45684;48.358;10.746;2022-09-09T05:54:08;2.63;;;2.40;;
10013;SDS011;45684;48.358;10.746;2022-09-09T05:56:41;2.30;;;2.00;;
10013;SDS011;45684;48.358;10.746;2022-09-09T05:59:14;2.20;;;2.00;;
10013;SDS011;45684;48.358;10.746;2022-09-09T06:01:42;3.90;;;2.03;;
10013;SDS011;45684;48.358;10.746;2022-09-09T06:04:19;2.00;;;1.90;;
10013;SDS011;45684;48.358;10.746;2022-09-09T06:06:51;2.20;;;2.00;;
10013;SDS011;45684;48.358;10.746;2022-09-09T06:09:22;1.90;;;1.80;;
10013;SDS011;45684;48.358;10.746;2022-09-09T06:11:49;2.83;;;2.23;;
10013;SDS011;45684;48.358;10.746;2022-09-09T06:14:19;2.00;;;1.90;;
10013;SDS011;45684;48.358;10.746;2022-09-09T06:16:49;2.10;;;1.90;;
10013;SDS011;45684;48.358;10.746;2022-09-09T06:19:20;4.57;;;2.10;;
10013;SDS011;45684;48.358;10.746;2022-09-09T06:21:49;2.30;;;2.10;;
10013;SDS011;45684;48.358;10.746;2022-09-09T06:24:17;3.80;;;2.07;;
10013;SDS011;45684;48.358;10.746;2022-09-09T06:26:47;1.90;;;1.80;;
10013;SDS011;45684;48.358;10.746;2022-09-09T06:29:20;5.07;;;2.27;;
10013;SDS011;45684;48.358;10.746;2022-09-09T06:31:49;2.10;;;2.00;;
10013;SDS011;45684;48.358;10.746;2022-09-09T06:34:20;2.00;;;1.90;;
10013;SDS011;45684;48.358;10.746;2022-09-09T06:36:56;2.93;;;2.20;;
10013;SDS011;45684;48.358;10.746;2022-09-09T06:39:28;2.63;;;2.17;;
10013;SDS011;45684;48.358;10.746;2022-09-09T06:41:58;4.30;;;2.20;;
10013;SDS011;45684;48.358;10.746;2022-09-09T06:44:49;2.93;;;2.43;;
10013;SDS011;45684;48.358;10.746;2022-09-09T06:47:26;2.57;;;2.20;;
10013;SDS011;45684;48.358;10.746;2022-09-09T06:49:57;2.43;;;2.23;;
10013;SDS011;45684;48.358;10.746;2022-09-09T06:52:25;2.30;;;2.20;;
10013;SDS011;45684;48.358;10.746;2022-09-09T06:54:54;2.50;;;2.30;;
10013;SDS011;45684;48.358;10.746;2022-09-09T06:57:26;3.53;;;2.40;;
10013;SDS011;45684;48.358;10.746;2022-09-09T07:00:05;2.43;;;2.30;;
10013;SDS011;45684;48.358;10.746;2022-09-09T07:02:34;4.17;;;2.63;;
10013;SDS011;45684;48.358;10.746;2022-09-09T07:05:06;3.67;;;2.07;;
10013;SDS011;45684;48.358;10.746;2022-09-09T07:07:35;3.03;;;2.20;;
10013;SDS011;45684;48.358;10.746;2022-09-09T07:10:04;2.60;;;2.20;;
10013;SDS011;45684;48.358;10.746;2022-09-09T07:12:36;2.40;;;2.20;;
10013;SDS011;45684;48.358;10.746;2022-09-09T07:15:08;2.77;;;2.53;;
10013;SDS011;45684;48.358;10.746;2022-09-09T07:17:40;3.37;;;2.47;;
10013;SDS011;45684;48.358;10.746;2022-09-09T07:20:08;2.33;;;2.23;;
10013;SDS011;45684;48.358;10.746;2022-09-09T07:22:35;2.93;;;2.40;;
10013;SDS011;45684;48.358;10.746;2022-09-09T07:25:04;2.53;;;2.33;;
10013;SDS011;45684;48.358;10.746;2022-09-09T07:27:33;5.07;;;2.47;;
10013;SDS011;45684;48.358;10.746;2022-09-09T07:30:03;2.70;;;2.50;;
10013;SDS011;45684;48.358;10.746;2022-09-09T07:32:32;2.50;;;2.30;;
10013;SDS011;45684;48.358;10.746;2022-09-09T07:35:00;2.63;;;2.43;;
10013;SDS011;45684;48.358;10.746;2022-09-09T07:37:28;3.67;;;2.70;;
10013;SDS011;45684;48.358;10.746;2022-09-09T07:39:56;3.87;;;2.80;;
10013;SDS011;45684;48.358;10.746;2022-09-09T07:42:25;3.93;;;2.80;;
10013;SDS011;45684;48.358;10.746;2022-09-09T07:44:52;3.93;;;3.00;;
10013;SDS011;45684;48.358;10.746;2022-09-09T07:47:22;5.43;;;3.40;;
10013;SDS011;45684;48.358;10.746;2022-09-09T07:49:50;3.60;;;3.27;;
10013;SDS011;45684;48.358;10.746;2022-09-09T07:52:23;3.03;;;2.83;;
10013;SDS011;45684;48.358;10.746;2022-09-09T07:54:55;3.23;;;2.90;;
10013;SDS011;45684;48.358;10.746;2022-09-09T07:57:23;4.03;;;3.03;;
10013;SDS011;45684;48.358;10.746;2022-09-09T07:59:52;4.07;;;2.90;;
10013;SDS011;45684;48.358;10.746;2022-09-09T08:02:21;4.13;;;2.70;;
10013;SDS011;45684;48.358;10.746;2022-09-09T08:04:50;4.37;;;2.67;;
10013;SDS011;45684;48.358;10.746;2022-09-09T08:07:20;2.97;;;2.73;;
10013;SDS011;45684;48.358;10.746;2022-09-09T08:09:52;3.40;;;2.70;;
10013;SDS011;45684;48.358;10.746;2022-09-09T08:12:24;2.70;;;2.50;;
10013;SDS011;45684;48.358;10.746;2022-09-09T08:14:53;4.03;;;2.73;;
10013;SDS011;45684;48.358;10.746;2022-09-09T08:17:25;3.13;;;2.73;;
10013;SDS011;45684;48.358;10.746;2022-09-09T08:19:53;3.77;;;2.77;;
10013;SDS011;45684;48.358;10.746;2022-09-09T08:22:25;3.53;;;2.80;;
10013;SDS011;45684;48.358;10.746;2022-09-09T08:24:53;3.20;;;2.50;;
10013;SDS011;45684;48.358;10.746;2022-09-09T08:27:22;2.50;;;2.30;;
10013;SDS011;45684;48.358;10.746;2022-09-09T08:29:51;2.57;;;2.17;;
10013;SDS011;45684;48.358;10.746;2022-09-09T08:32:19;4.70;;;2.00;;
10013;SDS011;45684;48.358;10.746;2022-09-09T08:34:49;2.00;;;1.50;;
10013;SDS011;45684;48.358;10.746;2022-09-09T08:37:21;1.77;;;1.67;;
10013;SDS011;45684;48.358;10.746;2022-09-09T08:39:49;2.03;;;1.83;;
10013;SDS011;45684;48.358;10.746;2022-09-09T08:42:26;1.90;;;1.57;;
10013;SDS011;45684;48.358;10.746;2022-09-09T08:45:09;1.53;;;1.43;;
10013;SDS011;45684;48.358;10.746;2022-09-09T08:47:50;1.67;;;1.50;;
10013;SDS011;45684;48.358;10.746;2022-09-09T08:50:30;3.97;;;1.60;;
10013;SDS011;45684;48.358;10.746;2022-09-09T08:53:11;1.63;;;1.53;;
10013;SDS011;45684;48.358;10.746;2022-09-09T08:55:45;1.93;;;1.43;;
10013;SDS011;45684;48.358;10.746;2022-09-09T08:58:19;2.33;;;1.70;;
10013;SDS011;45684;48.358;10.746;2022-09-09T09:01:00;1.60;;;1.50;;
10013;SDS011;45684;48.358;10.746;2022-09-09T09:03:48;1.57;;;1.33;;
10013;SDS011;45684;48.358;10.746;2022-09-09T09:06:26;1.80;;;1.70;;
10013;SDS011;45684;48.358;10.746;2022-09-09T09:09:11;2.83;;;1.80;;
10013;SDS011;45684;48.358;10.746;2022-09-09T09:11:49;1.93;;;1.80;;
10013;SDS011;45684;48.358;10.746;2022-09-09T09:14:22;1.60;;;1.50;;
10013;SDS011;45684;48.358;10.746;2022-09-09T09:16:58;2.20;;;1.70;;
10013;SDS011;45684;48.358;10.746;2022-09-09T09:19:28;2.93;;;1.50;;
10013;SDS011;45684;48.358;10.746;2022-09-09T09:21:59;3.17;;;1.80;;
10013;SDS011;45684;48.358;10.746;2022-09-09T09:24:34;2.87;;;1.90;;
10013;SDS011;45684;48.358;10.746;2022-09-09T09:27:12;1.90;;;1.70;;
10013;SDS011;45684;48.358;10.746;2022-09-09T09:29:45;2.70;;;1.50;;
10013;SDS011;45684;48.358;10.746;2022-09-09T09:32:38;3.93;;;1.57;;
10013;SDS011;45684;48.358;10.746;2022-09-09T09:35:10;3.27;;;1.47;;
10013;SDS011;45684;48.358;10.746;2022-09-09T09:37:42;2.93;;;1.27;;
10013;SDS011;45684;48.358;10.746;2022-09-09T09:40:33;3.70;;;1.50;;
10013;SDS011;45684;48.358;10.746;2022-09-09T09:43:01;3.27;;;1.50;;
10013;SDS011;45684;48.358;10.746;2022-09-09T09:45:35;2.80;;;1.73;;
10013;SDS011;45684;48.358;10.746;2022-09-09T09:48:27;3.43;;;1.40;;
10013;SDS011;45684;48.358;10.746;2022-09-09T09:50:55;2.80;;;1.53;;
10013;SDS011;45684;48.358;10.746;2022-09-09T09:53:27;3.03;;;1.53;;
10013;SDS011;45684;48.358;10.746;2022-09-09T09:55:58;2.63;;;1.50;;
10013;SDS011;45684;48.358;10.746;2022-09-09T09:58:29;1.63;;;1.40;;
10013;SDS011;45684;48.358;10.746;2022-09-09T10:01:00;4.43;;;1.60;;
10013;SDS011;45684;48.358;10.746;2022-09-09T10:03:30;1.67;;;1.40;;
10013;SDS011;45684;48.358;10.746;2022-09-09T10:06:00;2.07;;;1.50;;
10013;SDS011;45684;48.358;10.746;2022-09-09T10:08:29;3.63;;;1.50;;
10013;SDS011;45684;48.358;10.746;2022-09-09T10:11:06;5.27;;;1.50;;
10013;SDS011;45684;48.358;10.746;2022-09-09T10:13:47;2.70;;;1.40;;
10013;SDS011;45684;48.358;10.746;2022-09-09T10:16:34;2.97;;;1.35;;
10013;SDS011;45684;48.358;10.746;2022-09-09T10:19:15;2.05;;;1.38;;
10013;SDS011;45684;48.358;10.746;2022-09-09T10:24:51;1.80;;;1.40;;
10013;SDS011;45684;48.358;10.746;2022-09-09T10:27:33;2.60;;;1.30;;
10013;SDS011;45684;48.358;10.746;2022-09-09T10:30:12;3.53;;;1.42;;
10013;SDS011;45684;48.358;10.746;2022-09-09T10:32:55;3.20;;;1.30;;
10013;SDS011;45684;48.358;10.746;2022-09-09T10:35:33;1.60;;;1.50;;
10013;SDS011;45684;48.358;10.746;2022-09-09T10:38:13;2.20;;;1.58;;
10013;SDS011;45684;48.358;10.746;2022-09-09T10:40:48;4.03;;;1.75;;
10013;SDS011;45684;48.358;10.746;2022-09-09T10:43:39;2.70;;;1.50;;
10013;SDS011;45684;48.358;10.746;2022-09-09T10:46:23;1.65;;;1.52;;
10013;SDS011;45684;48.358;10.746;2022-09-09T10:49:03;1.85;;;1.25;;
10013;SDS011;45684;48.358;10.746;2022-09-09T10:51:49;1.50;;;1.40;;
10013;SDS011;45684;48.358;10.746;2022-09-09T10:54:31;2.50;;;1.42;;
10013;SDS011;45684;48.358;10.746;2022-09-09T10:57:12;2.25;;;1.30;;
10013;SDS011;45684;48.358;10.746;2022-09-09T10:59:44;1.55;;;1.10;;
10013;SDS011;45684;48.358;10.746;2022-09-09T11:02:16;2.63;;;1.20;;
10013;SDS011;45684;48.358;10.746;2022-09-09T11:04:49;1.38;;;1.20;;
10013;SDS011;45684;48.358;10.746;2022-09-09T11:07:25;2.40;;;1.30;;
10013;SDS011;45684;48.358;10.746;2022-09-09T11:09:59;2.03;;;1.30;;
10013;SDS011;45684;48.358;10.746;2022-09-09T11:12:34;2.10;;;1.27;;
10013;SDS011;45684;48.358;10.746;2022-09-09T11:15:08;1.58;;;1.13;;
10013;SDS011;45684;48.358;10.746;2022-09-09T11:17:45;1.88;;;1.20;;
10013;SDS011;45684;48.358;10.746;2022-09-09T11:20:16;1.55;;;1.17;;
10013;SDS011;45684;48.358;10.746;2022-09-09T11:22:46;1.42;;;1.20;;
10013;SDS011;45684;48.358;10.746;2022-09-09T11:25:18;1.75;;;1.10;;
10013;SDS011;45684;48.358;10.746;2022-09-09T11:27:55;3.00;;;1.20;;
10013;SDS011;45684;48.358;10.746;2022-09-09T11:30:39;1.58;;;1.27;;
10013;SDS011;45684;48.358;10.746;2022-09-09T11:36:27;2.80;;;1.42;;
10013;SDS011;45684;48.358;10.746;2022-09-09T11:39:44;2.97;;;1.30;;
10013;SDS011;45684;48.358;10.746;2022-09-09T11:42:27;2.90;;;1.30;;
10013;SDS011;45684;48.358;10.746;2022-09-09T11:44:56;2.22;;;1.25;;
10013;SDS011;45684;48.358;10.746;2022-09-09T11:47:25;4.00;;;1.60;;
10013;SDS011;45684;48.358;10.746;2022-09-09T11:50:06;2.85;;;1.40;;
10013;SDS011;45684;48.358;10.746;2022-09-09T11:53:03;2.22;;;1.38;;
10013;SDS011;45684;48.358;10.746;2022-09-09T11:55:34;1.60;;;1.20;;
10013;SDS011;45684;48.358;10.746;2022-09-09T11:58:03;3.22;;;1.25;;
10013;SDS011;45684;48.358;10.746;2022-09-09T12:00:35;3.55;;;1.50;;
10013;SDS011;45684;48.358;10.746;2022-09-09T12:03:04;1.10;;;1.00;;
10013;SDS011;45684;48.358;10.746;2022-09-09T12:05:35;2.83;;;1.45;;
10013;SDS011;45684;48.358;10.746;2022-09-09T12:08:06;2.00;;;1.30;;
10013;SDS011;45684;48.358;10.746;2022-09-09T12:10:38;4.20;;;1.50;;
10013;SDS011;45684;48.358;10.746;2022-09-09T12:13:07;3.78;;;1.48;;
10013;SDS011;45684;48.358;10.746;2022-09-09T12:15:48;4.18;;;1.60;;
10013;SDS011;45684;48.358;10.746;2022-09-09T12:18:21;2.42;;;1.42;;
10013;SDS011;45684;48.358;10.746;2022-09-09T12:20:52;3.50;;;1.35;;
10013;SDS011;45684;48.358;10.746;2022-09-09T12:23:30;2.88;;;1.55;;
10013;SDS011;45684;48.358;10.746;2022-09-09T12:26:21;3.75;;;1.25;;
10013;SDS011;45684;48.358;10.746;2022-09-09T12:28:59;2.40;;;1.15;;
10013;SDS011;45684;48.358;10.746;2022-09-09T12:31:38;2.67;;;1.02;;
10013;SDS011;45684;48.358;10.746;2022-09-09T12:34:14;2.42;;;0.85;;
10013;SDS011;45684;48.358;10.746;2022-09-09T12:36:44;2.85;;;1.42;;
10013;SDS011;45684;48.358;10.746;2022-09-09T12:39:27;2.70;;;1.33;;
10013;SDS011;45684;48.358;10.746;2022-09-09T12:41:58;5.97;;;1.25;;
10013;SDS011;45684;48.358;10.746;2022-09-09T12:44:26;1.90;;;1.00;;
10013;SDS011;45684;48.358;10.746;2022-09-09T12:46:56;2.67;;;1.20;;
10013;SDS011;45684;48.358;10.746;2022-09-09T12:49:28;2.40;;;0.98;;
10013;SDS011;45684;48.358;10.746;2022-09-09T12:52:01;3.22;;;1.10;;
10013;SDS011;45684;48.358;10.746;2022-09-09T12:54:32;2.65;;;1.00;;
10013;SDS011;45684;48.358;10.746;2022-09-09T12:57:02;3.00;;;1.23;;
10013;SDS011;45684;48.358;10.746;2022-09-09T12:59:35;2.35;;;0.98;;
10013;SDS011;45684;48.358;10.746;2022-09-09T13:02:11;2.40;;;1.08;;
10013;SDS011;45684;48.358;10.746;2022-09-09T13:04:48;3.47;;;1.40;;
10013;SDS011;45684;48.358;10.746;2022-09-09T13:07:17;4.63;;;1.48;;
10013;SDS011;45684;48.358;10.746;2022-09-09T13:09:45;2.50;;;1.23;;
10013;SDS011;45684;48.358;10.746;2022-09-09T13:12:15;3.17;;;1.20;;
10013;SDS011;45684;48.358;10.746;2022-09-09T13:14:46;6.15;;;1.23;;
10013;SDS011;45684;48.358;10.746;2022-09-09T13:17:20;2.03;;;1.15;;
10013;SDS011;45684;48.358;10.746;2022-09-09T13:19:49;1.80;;;0.93;;
10013;SDS011;45684;48.358;10.746;2022-09-09T13:22:29;4.50;;;1.30;;
10013;SDS011;45684;48.358;10.746;2022-09-09T13:25:02;1.85;;;0.95;;
10013;SDS011;45684;48.358;10.746;2022-09-09T13:27:32;2.35;;;1.00;;
10013;SDS011;45684;48.358;10.746;2022-09-09T13:30:19;2.17;;;1.02;;
10013;SDS011;45684;48.358;10.746;2022-09-09T13:33:00;1.17;;;1.00;;
10013;SDS011;45684;48.358;10.746;2022-09-09T13:35:29;3.78;;;1.20;;
10013;SDS011;45684;48.358;10.746;2022-09-09T13:37:58;2.53;;;1.23;;
10013;SDS011;45684;48.358;10.746;2022-09-09T13:40:27;2.30;;;1.10;;
10013;SDS011;45684;48.358;10.746;2022-09-09T13:42:56;2.50;;;1.20;;
10013;SDS011;45684;48.358;10.746;2022-09-09T13:45:25;3.25;;;1.48;;
10013;SDS011;45684;48.358;10.746;2022-09-09T13:47:54;3.92;;;1.60;;
10013;SDS011;45684;48.358;10.746;2022-09-09T13:50:25;4.43;;;2.00;;
10013;SDS011;45684;48.358;10.746;2022-09-09T13:52:56;6.18;;;2.63;;
10013;SDS011;45684;48.358;10.746;2022-09-09T13:55:25;7.32;;;2.60;;
10013;SDS011;45684;48.358;10.746;2022-09-09T13:57:55;9.20;;;2.30;;
10013;SDS011;45684;48.358;10.746;2022-09-09T14:00:24;4.87;;;1.77;;
10013;SDS011;45684;48.358;10.746;2022-09-09T14:02:52;4.10;;;1.50;;
10013;SDS011;45684;48.358;10.746;2022-09-09T14:05:21;3.70;;;1.50;;
10013;SDS011;45684;48.358;10.746;2022-09-09T14:07:50;3.83;;;1.40;;
10013;SDS011;45684;48.358;10.746;2022-09-09T14:10:18;2.83;;;1.70;;
10013;SDS011;45684;48.358;10.746;2022-09-09T14:12:47;2.60;;;1.47;;
10013;SDS011;45684;48.358;10.746;2022-09-09T14:15:14;1.90;;;1.00;;
10013;SDS011;45684;48.358;10.746;2022-09-09T14:17:42;2.60;;;1.27;;
10013;SDS011;45684;48.358;10.746;2022-09-09T14:20:10;3.23;;;1.10;;
10013;SDS011;45684;48.358;10.746;2022-09-09T14:22:41;2.87;;;1.00;;
10013;SDS011;45684;48.358;10.746;2022-09-09T14:25:11;2.30;;;0.97;;
10013;SDS011;45684;48.358;10.746;2022-09-09T14:27:40;3.60;;;1.07;;
10013;SDS011;45684;48.358;10.746;2022-09-09T14:30:09;2.00;;;0.90;;
10013;SDS011;45684;48.358;10.746;2022-09-09T14:32:37;1.20;;;0.60;;
10013;SDS011;45684;48.358;10.746;2022-09-09T14:35:05;2.22;;;1.00;;
10013;SDS011;45684;48.358;10.746;2022-09-09T14:37:33;1.58;;;1.15;;
10013;SDS011;45684;48.358;10.746;2022-09-09T14:40:01;1.73;;;0.93;;
10013;SDS011;45684;48.358;10.746;2022-09-09T14:42:30;2.15;;;0.90;;
10013;SDS011;45684;48.358;10.746;2022-09-09T14:44:58;3.30;;;1.30;;
10013;SDS011;45684;48.358;10.746;2022-09-09T14:47:26;1.42;;;1.00;;
10013;SDS011;45684;48.358;10.746;2022-09-09T14:49:53;1.35;;;0.85;;
10013;SDS011;45684;48.358;10.746;2022-09-09T14:52:21;1.27;;;0.90;;
10013;SDS011;45684;48.358;10.746;2022-09-09T14:54:49;1.70;;;0.80;;
10013;SDS011;45684;48.358;10.746;2022-09-09T14:57:17;1.25;;;0.65;;
10013;SDS011;45684;48.358;10.746;2022-09-09T14:59:46;1.73;;;1.00;;
10013;SDS011;45684;48.358;10.746;2022-09-09T15:02:16;1.30;;;1.05;;
10013;SDS011;45684;48.358;10.746;2022-09-09T15:04:44;1.60;;;0.90;;
10013;SDS011;45684;48.358;10.746;2022-09-09T15:07:12;1.27;;;0.77;;
10013;SDS011;45684;48.358;10.746;2022-09-09T15:09:39;1.13;;;0.80;;
10013;SDS011;45684;48.358;10.746;2022-09-09T15:12:07;1.15;;;0.82;;
10013;SDS011;45684;48.358;10.746;2022-09-09T15:14:35;0.70;;;0.50;;
10013;SDS011;45684;48.358;10.746;2022-09-09T15:17:04;1.38;;;0.70;;